sensor_id;sensor_type;location;lat;lon;timestamp;P1;durP1;ratioP1;P2;durP2;ratioP2
31438;SDS011;18062;48.872;9.220;2024-03-02T00:00:18;9.17;;;6.50;;
31438;SDS011;18062;48.872;9.220;2024-03-02T00:02:46;9.63;;;6.17;;
31438;SDS011;18062;48.872;9.220;2024-03-02T00:05:13;10.40;;;6.43;;
31438;SDS011;18062;48.872;9.220;2024-03-02T00:07:41;14.50;;;6.90;;
31438;SDS011;18062;48.872;9.220;2024-03-02T00:10:08;12.53;;;6.97;;
31438;SDS011;18062;48.872;9.220;2024-03-02T00:12:35;11.37;;;7.20;;
31438;SDS011;18062;48.872;9.220;2024-03-02T00:15:04;10.83;;;6.53;;
31438;SDS011;18062;48.872;9.220;2024-03-02T00:17:30;8.30;;;6.43;;
31438;SDS011;18062;48.872;9.220;2024-03-02T00:19:57;11.47;;;7.60;;
31438;SDS011;18062;48.872;9.220;2024-03-02T00:22:23;11.80;;;7.73;;
31438;SDS011;18062;48.872;9.220;2024-03-02T00:24:49;12.33;;;7.83;;
31438;SDS011;18062;48.872;9.220;2024-03-02T00:27:15;15.03;;;7.63;;
31438;SDS011;18062;48.872;9.220;2024-03-02T00:29:43;10.40;;;7.10;;
31438;SDS011;18062;48.872;9.220;2024-03-02T00:32:11;10.70;;;7.23;;
31438;SDS011;18062;48.872;9.220;2024-03-02T00:34:38;12.53;;;7.90;;
31438;SDS011;18062;48.872;9.220;2024-03-02T00:37:04;13.30;;;8.30;;
31438;SDS011;18062;48.872;9.220;2024-03-02T00:39:30;12.30;;;7.70;;
31438;SDS011;18062;48.872;9.220;2024-03-02T00:41:57;13.83;;;7.87;;
31438;SDS011;18062;48.872;9.220;2024-03-02T00:44:24;12.60;;;7.80;;
31438;SDS011;18062;48.872;9.220;2024-03-02T00:47:00;12.10;;;7.10;;
31438;SDS011;18062;48.872;9.220;2024-03-02T00:49:26;11.20;;;6.63;;
31438;SDS011;18062;48.872;9.220;2024-03-02T00:51:54;11.33;;;7.03;;
31438;SDS011;18062;48.872;9.220;2024-03-02T00:54:21;10.17;;;7.37;;
31438;SDS011;18062;48.872;9.220;2024-03-02T00:56:49;12.47;;;7.37;;
31438;SDS011;18062;48.872;9.220;2024-03-02T00:59:15;9.93;;;7.30;;
31438;SDS011;18062;48.872;9.220;2024-03-02T01:01:41;13.30;;;7.83;;
31438;SDS011;18062;48.872;9.220;2024-03-02T01:04:08;10.97;;;7.30;;
31438;SDS011;18062;48.872;9.220;2024-03-02T01:06:37;12.97;;;6.97;;
31438;SDS011;18062;48.872;9.220;2024-03-02T01:09:03;10.37;;;8.13;;
31438;SDS011;18062;48.872;9.220;2024-03-02T01:11:29;12.40;;;8.07;;
31438;SDS011;18062;48.872;9.220;2024-03-02T01:13:55;10.57;;;6.97;;
31438;SDS011;18062;48.872;9.220;2024-03-02T01:16:21;13.43;;;6.23;;
31438;SDS011;18062;48.872;9.220;2024-03-02T01:18:48;13.50;;;8.00;;
31438;SDS011;18062;48.872;9.220;2024-03-02T01:21:14;11.23;;;6.77;;
31438;SDS011;18062;48.872;9.220;2024-03-02T01:23:40;12.23;;;7.33;;
31438;SDS011;18062;48.872;9.220;2024-03-02T01:26:06;12.37;;;7.63;;
31438;SDS011;18062;48.872;9.220;2024-03-02T01:28:33;11.33;;;6.90;;
31438;SDS011;18062;48.872;9.220;2024-03-02T01:30:59;11.93;;;7.97;;
31438;SDS011;18062;48.872;9.220;2024-03-02T01:33:27;10.53;;;6.47;;
31438;SDS011;18062;48.872;9.220;2024-03-02T01:35:53;8.60;;;6.20;;
31438;SDS011;18062;48.872;9.220;2024-03-02T01:38:19;7.93;;;5.43;;
31438;SDS011;18062;48.872;9.220;2024-03-02T01:40:45;9.40;;;5.90;;
31438;SDS011;18062;48.872;9.220;2024-03-02T01:43:11;13.00;;;7.40;;
31438;SDS011;18062;48.872;9.220;2024-03-02T01:45:37;12.27;;;7.27;;
31438;SDS011;18062;48.872;9.220;2024-03-02T01:48:04;11.23;;;7.10;;
31438;SDS011;18062;48.872;9.220;2024-03-02T01:50:31;10.20;;;6.27;;
31438;SDS011;18062;48.872;9.220;2024-03-02T01:52:58;9.80;;;6.40;;
31438;SDS011;18062;48.872;9.220;2024-03-02T01:55:24;12.63;;;7.53;;
31438;SDS011;18062;48.872;9.220;2024-03-02T01:57:50;12.93;;;7.63;;
31438;SDS011;18062;48.872;9.220;2024-03-02T02:00:17;12.43;;;7.83;;
31438;SDS011;18062;48.872;9.220;2024-03-02T02:02:44;12.80;;;8.20;;
31438;SDS011;18062;48.872;9.220;2024-03-02T02:05:10;14.03;;;8.07;;
31438;SDS011;18062;48.872;9.220;2024-03-02T02:07:36;13.57;;;7.37;;
31438;SDS011;18062;48.872;9.220;2024-03-02T02:10:02;13.77;;;8.40;;
31438;SDS011;18062;48.872;9.220;2024-03-02T02:12:28;14.17;;;8.30;;
31438;SDS011;18062;48.872;9.220;2024-03-02T02:14:54;11.50;;;7.60;;
31438;SDS011;18062;48.872;9.220;2024-03-02T02:17:20;11.53;;;7.63;;
31438;SDS011;18062;48.872;9.220;2024-03-02T02:19:46;13.87;;;7.60;;
31438;SDS011;18062;48.872;9.220;2024-03-02T02:22:12;10.80;;;7.03;;
31438;SDS011;18062;48.872;9.220;2024-03-02T02:24:42;12.80;;;7.40;;
31438;SDS011;18062;48.872;9.220;2024-03-02T02:27:08;12.97;;;7.33;;
31438;SDS011;18062;48.872;9.220;2024-03-02T02:29:35;13.20;;;7.93;;
31438;SDS011;18062;48.872;9.220;2024-03-02T02:32:01;14.60;;;8.13;;
31438;SDS011;18062;48.872;9.220;2024-03-02T02:34:28;13.77;;;7.70;;
31438;SDS011;18062;48.872;9.220;2024-03-02T02:36:54;14.73;;;8.10;;
31438;SDS011;18062;48.872;9.220;2024-03-02T02:39:21;12.37;;;7.83;;
31438;SDS011;18062;48.872;9.220;2024-03-02T02:41:47;16.13;;;8.93;;
31438;SDS011;18062;48.872;9.220;2024-03-02T02:44:13;10.33;;;7.40;;
31438;SDS011;18062;48.872;9.220;2024-03-02T02:46:40;15.17;;;8.37;;
31438;SDS011;18062;48.872;9.220;2024-03-02T02:49:06;13.33;;;8.40;;
31438;SDS011;18062;48.872;9.220;2024-03-02T02:51:32;14.50;;;7.80;;
31438;SDS011;18062;48.872;9.220;2024-03-02T02:53:58;12.97;;;7.67;;
31438;SDS011;18062;48.872;9.220;2024-03-02T02:56:24;11.10;;;7.50;;
31438;SDS011;18062;48.872;9.220;2024-03-02T02:58:50;12.53;;;6.17;;
31438;SDS011;18062;48.872;9.220;2024-03-02T03:01:16;9.90;;;5.83;;
31438;SDS011;18062;48.872;9.220;2024-03-02T03:03:45;11.10;;;6.43;;
31438;SDS011;18062;48.872;9.220;2024-03-02T03:06:11;11.03;;;5.80;;
31438;SDS011;18062;48.872;9.220;2024-03-02T03:08:37;12.90;;;6.37;;
31438;SDS011;18062;48.872;9.220;2024-03-02T03:11:04;12.23;;;6.87;;
31438;SDS011;18062;48.872;9.220;2024-03-02T03:13:33;9.83;;;6.30;;
31438;SDS011;18062;48.872;9.220;2024-03-02T03:16:00;11.00;;;6.90;;
31438;SDS011;18062;48.872;9.220;2024-03-02T03:18:26;12.50;;;6.73;;
31438;SDS011;18062;48.872;9.220;2024-03-02T03:20:52;17.53;;;7.33;;
31438;SDS011;18062;48.872;9.220;2024-03-02T03:23:18;13.73;;;6.40;;
31438;SDS011;18062;48.872;9.220;2024-03-02T03:25:44;11.50;;;5.97;;
31438;SDS011;18062;48.872;9.220;2024-03-02T03:28:10;13.27;;;6.83;;
31438;SDS011;18062;48.872;9.220;2024-03-02T03:30:39;9.57;;;6.43;;
31438;SDS011;18062;48.872;9.220;2024-03-02T03:33:06;10.50;;;5.67;;
31438;SDS011;18062;48.872;9.220;2024-03-02T03:35:32;11.47;;;6.23;;
31438;SDS011;18062;48.872;9.220;2024-03-02T03:37:58;12.33;;;5.80;;
31438;SDS011;18062;48.872;9.220;2024-03-02T03:40:24;10.30;;;6.57;;
31438;SDS011;18062;48.872;9.220;2024-03-02T03:42:51;12.70;;;6.50;;
31438;SDS011;18062;48.872;9.220;2024-03-02T03:45:17;8.33;;;5.07;;
31438;SDS011;18062;48.872;9.220;2024-03-02T03:47:43;7.47;;;5.67;;
31438;SDS011;18062;48.872;9.220;2024-03-02T03:50:09;8.83;;;5.77;;
31438;SDS011;18062;48.872;9.220;2024-03-02T03:52:38;10.47;;;5.93;;
31438;SDS011;18062;48.872;9.220;2024-03-02T03:55:04;11.77;;;6.67;;
31438;SDS011;18062;48.872;9.220;2024-03-02T03:57:30;11.60;;;6.17;;
31438;SDS011;18062;48.872;9.220;2024-03-02T03:59:56;11.50;;;6.80;;
31438;SDS011;18062;48.872;9.220;2024-03-02T04:02:22;12.17;;;7.07;;
31438;SDS011;18062;48.872;9.220;2024-03-02T04:04:49;12.43;;;6.40;;
31438;SDS011;18062;48.872;9.220;2024-03-02T04:07:16;11.83;;;6.40;;
31438;SDS011;18062;48.872;9.220;2024-03-02T04:09:42;13.33;;;6.27;;
31438;SDS011;18062;48.872;9.220;2024-03-02T04:12:08;11.17;;;6.23;;
31438;SDS011;18062;48.872;9.220;2024-03-02T04:14:34;11.23;;;5.87;;
31438;SDS011;18062;48.872;9.220;2024-03-02T04:17:00;12.43;;;6.10;;
31438;SDS011;18062;48.872;9.220;2024-03-02T04:19:26;11.40;;;6.63;;
31438;SDS011;18062;48.872;9.220;2024-03-02T04:21:52;12.43;;;5.83;;
31438;SDS011;18062;48.872;9.220;2024-03-02T04:24:18;9.97;;;5.80;;
31438;SDS011;18062;48.872;9.220;2024-03-02T04:26:44;10.67;;;5.77;;
31438;SDS011;18062;48.872;9.220;2024-03-02T04:29:10;10.57;;;5.90;;
31438;SDS011;18062;48.872;9.220;2024-03-02T04:31:39;16.90;;;6.53;;
31438;SDS011;18062;48.872;9.220;2024-03-02T04:34:05;11.50;;;6.33;;
31438;SDS011;18062;48.872;9.220;2024-03-02T04:36:31;14.77;;;7.43;;
31438;SDS011;18062;48.872;9.220;2024-03-02T04:38:57;13.83;;;6.90;;
31438;SDS011;18062;48.872;9.220;2024-03-02T04:41:23;12.87;;;7.27;;
31438;SDS011;18062;48.872;9.220;2024-03-02T04:43:49;11.03;;;6.87;;
31438;SDS011;18062;48.872;9.220;2024-03-02T04:46:15;12.53;;;7.13;;
31438;SDS011;18062;48.872;9.220;2024-03-02T04:48:41;11.30;;;5.77;;
31438;SDS011;18062;48.872;9.220;2024-03-02T04:51:07;10.53;;;5.83;;
31438;SDS011;18062;48.872;9.220;2024-03-02T04:53:33;10.60;;;5.73;;
31438;SDS011;18062;48.872;9.220;2024-03-02T04:55:59;8.47;;;5.80;;
31438;SDS011;18062;48.872;9.220;2024-03-02T04:58:48;10.50;;;6.13;;
31438;SDS011;18062;48.872;9.220;2024-03-02T05:01:14;11.60;;;6.17;;
31438;SDS011;18062;48.872;9.220;2024-03-02T05:03:42;12.27;;;7.30;;
31438;SDS011;18062;48.872;9.220;2024-03-02T05:06:08;10.27;;;5.97;;
31438;SDS011;18062;48.872;9.220;2024-03-02T05:08:34;14.33;;;7.07;;
31438;SDS011;18062;48.872;9.220;2024-03-02T05:11:00;13.27;;;7.40;;
31438;SDS011;18062;48.872;9.220;2024-03-02T05:13:46;11.03;;;6.40;;
31438;SDS011;18062;48.872;9.220;2024-03-02T05:16:12;15.63;;;7.70;;
31438;SDS011;18062;48.872;9.220;2024-03-02T05:18:38;11.43;;;5.50;;
31438;SDS011;18062;48.872;9.220;2024-03-02T05:21:04;10.90;;;7.00;;
31438;SDS011;18062;48.872;9.220;2024-03-02T05:23:30;13.00;;;6.10;;
31438;SDS011;18062;48.872;9.220;2024-03-02T05:25:56;12.40;;;6.97;;
31438;SDS011;18062;48.872;9.220;2024-03-02T05:28:22;11.03;;;6.97;;
31438;SDS011;18062;48.872;9.220;2024-03-02T05:30:48;10.40;;;6.13;;
31438;SDS011;18062;48.872;9.220;2024-03-02T05:33:14;9.07;;;6.17;;
31438;SDS011;18062;48.872;9.220;2024-03-02T05:35:40;7.83;;;4.77;;
31438;SDS011;18062;48.872;9.220;2024-03-02T05:38:06;9.17;;;4.90;;
31438;SDS011;18062;48.872;9.220;2024-03-02T05:40:33;10.83;;;6.03;;
31438;SDS011;18062;48.872;9.220;2024-03-02T05:42:59;13.20;;;6.10;;
31438;SDS011;18062;48.872;9.220;2024-03-02T05:45:29;12.07;;;5.43;;
31438;SDS011;18062;48.872;9.220;2024-03-02T05:47:55;12.27;;;5.73;;
31438;SDS011;18062;48.872;9.220;2024-03-02T05:50:21;9.23;;;4.77;;
31438;SDS011;18062;48.872;9.220;2024-03-02T05:52:47;12.23;;;6.80;;
31438;SDS011;18062;48.872;9.220;2024-03-02T05:55:13;12.93;;;6.93;;
31438;SDS011;18062;48.872;9.220;2024-03-02T05:57:39;9.40;;;5.77;;
31438;SDS011;18062;48.872;9.220;2024-03-02T06:00:06;12.33;;;6.57;;
31438;SDS011;18062;48.872;9.220;2024-03-02T06:02:33;12.37;;;6.90;;
31438;SDS011;18062;48.872;9.220;2024-03-02T06:05:00;8.77;;;4.77;;
31438;SDS011;18062;48.872;9.220;2024-03-02T06:07:26;8.07;;;4.60;;
31438;SDS011;18062;48.872;9.220;2024-03-02T06:09:52;10.60;;;4.67;;
31438;SDS011;18062;48.872;9.220;2024-03-02T06:12:18;7.43;;;4.13;;
31438;SDS011;18062;48.872;9.220;2024-03-02T06:14:45;6.73;;;4.23;;
31438;SDS011;18062;48.872;9.220;2024-03-02T06:17:11;6.10;;;3.70;;
31438;SDS011;18062;48.872;9.220;2024-03-02T06:19:37;7.33;;;4.00;;
31438;SDS011;18062;48.872;9.220;2024-03-02T06:22:03;8.73;;;4.70;;
31438;SDS011;18062;48.872;9.220;2024-03-02T06:24:29;5.57;;;4.20;;
31438;SDS011;18062;48.872;9.220;2024-03-02T06:26:55;8.37;;;4.87;;
31438;SDS011;18062;48.872;9.220;2024-03-02T06:29:21;11.23;;;6.17;;
31438;SDS011;18062;48.872;9.220;2024-03-02T06:31:47;8.23;;;5.63;;
31438;SDS011;18062;48.872;9.220;2024-03-02T06:34:13;9.87;;;5.57;;
31438;SDS011;18062;48.872;9.220;2024-03-02T06:36:39;12.63;;;6.07;;
31438;SDS011;18062;48.872;9.220;2024-03-02T06:39:07;16.60;;;6.60;;
31438;SDS011;18062;48.872;9.220;2024-03-02T06:41:33;13.13;;;7.00;;
31438;SDS011;18062;48.872;9.220;2024-03-02T06:43:59;14.33;;;7.47;;
31438;SDS011;18062;48.872;9.220;2024-03-02T06:46:26;16.13;;;8.30;;
31438;SDS011;18062;48.872;9.220;2024-03-02T06:48:52;16.20;;;9.10;;
31438;SDS011;18062;48.872;9.220;2024-03-02T06:51:18;17.50;;;9.83;;
31438;SDS011;18062;48.872;9.220;2024-03-02T06:53:44;18.80;;;10.50;;
31438;SDS011;18062;48.872;9.220;2024-03-02T06:56:11;18.23;;;10.10;;
31438;SDS011;18062;48.872;9.220;2024-03-02T06:58:37;16.60;;;9.40;;
31438;SDS011;18062;48.872;9.220;2024-03-02T07:01:03;19.90;;;9.63;;
31438;SDS011;18062;48.872;9.220;2024-03-02T07:03:29;18.10;;;9.13;;
31438;SDS011;18062;48.872;9.220;2024-03-02T07:05:55;19.53;;;10.00;;
31438;SDS011;18062;48.872;9.220;2024-03-02T07:08:22;17.47;;;9.03;;
31438;SDS011;18062;48.872;9.220;2024-03-02T07:10:48;16.33;;;7.77;;
31438;SDS011;18062;48.872;9.220;2024-03-02T07:13:14;13.57;;;8.37;;
31438;SDS011;18062;48.872;9.220;2024-03-02T07:15:40;17.27;;;8.80;;
31438;SDS011;18062;48.872;9.220;2024-03-02T07:18:25;16.70;;;8.93;;
31438;SDS011;18062;48.872;9.220;2024-03-02T07:20:51;15.47;;;9.67;;
31438;SDS011;18062;48.872;9.220;2024-03-02T07:23:17;15.53;;;8.70;;
31438;SDS011;18062;48.872;9.220;2024-03-02T07:25:43;19.53;;;9.63;;
31438;SDS011;18062;48.872;9.220;2024-03-02T07:28:09;17.83;;;9.10;;
31438;SDS011;18062;48.872;9.220;2024-03-02T07:30:35;16.80;;;9.10;;
31438;SDS011;18062;48.872;9.220;2024-03-02T07:33:03;18.53;;;9.63;;
31438;SDS011;18062;48.872;9.220;2024-03-02T07:35:29;16.13;;;8.63;;
31438;SDS011;18062;48.872;9.220;2024-03-02T07:37:56;16.37;;;9.03;;
31438;SDS011;18062;48.872;9.220;2024-03-02T07:40:23;16.17;;;8.50;;
31438;SDS011;18062;48.872;9.220;2024-03-02T07:42:49;15.77;;;8.57;;
31438;SDS011;18062;48.872;9.220;2024-03-02T07:45:15;15.93;;;8.00;;
31438;SDS011;18062;48.872;9.220;2024-03-02T07:47:41;14.57;;;8.63;;
31438;SDS011;18062;48.872;9.220;2024-03-02T07:50:07;15.80;;;8.43;;
31438;SDS011;18062;48.872;9.220;2024-03-02T07:52:34;16.77;;;9.13;;
31438;SDS011;18062;48.872;9.220;2024-03-02T07:55:00;14.53;;;9.20;;
31438;SDS011;18062;48.872;9.220;2024-03-02T07:57:26;14.47;;;8.57;;
31438;SDS011;18062;48.872;9.220;2024-03-02T07:59:52;13.87;;;8.53;;
31438;SDS011;18062;48.872;9.220;2024-03-02T08:02:18;14.47;;;9.00;;
31438;SDS011;18062;48.872;9.220;2024-03-02T08:04:44;15.40;;;8.77;;
31438;SDS011;18062;48.872;9.220;2024-03-02T08:07:11;13.07;;;8.33;;
31438;SDS011;18062;48.872;9.220;2024-03-02T08:09:37;12.47;;;8.20;;
31438;SDS011;18062;48.872;9.220;2024-03-02T08:12:03;11.03;;;7.20;;
31438;SDS011;18062;48.872;9.220;2024-03-02T08:14:29;14.03;;;7.97;;
31438;SDS011;18062;48.872;9.220;2024-03-02T08:16:55;12.47;;;8.03;;
31438;SDS011;18062;48.872;9.220;2024-03-02T08:19:22;11.43;;;7.33;;
31438;SDS011;18062;48.872;9.220;2024-03-02T08:21:48;10.70;;;6.40;;
31438;SDS011;18062;48.872;9.220;2024-03-02T08:24:14;14.23;;;7.30;;
31438;SDS011;18062;48.872;9.220;2024-03-02T08:26:40;11.80;;;7.60;;
31438;SDS011;18062;48.872;9.220;2024-03-02T08:29:06;8.67;;;6.00;;
31438;SDS011;18062;48.872;9.220;2024-03-02T08:31:32;10.07;;;6.30;;
31438;SDS011;18062;48.872;9.220;2024-03-02T08:33:58;8.20;;;5.90;;
31438;SDS011;18062;48.872;9.220;2024-03-02T08:36:24;9.53;;;6.03;;
31438;SDS011;18062;48.872;9.220;2024-03-02T08:38:50;8.90;;;6.63;;
31438;SDS011;18062;48.872;9.220;2024-03-02T08:41:16;9.40;;;6.07;;
31438;SDS011;18062;48.872;9.220;2024-03-02T08:43:43;7.90;;;5.17;;
31438;SDS011;18062;48.872;9.220;2024-03-02T08:46:09;8.17;;;5.70;;
31438;SDS011;18062;48.872;9.220;2024-03-02T08:48:35;6.63;;;5.00;;
31438;SDS011;18062;48.872;9.220;2024-03-02T08:51:01;7.57;;;4.97;;
31438;SDS011;18062;48.872;9.220;2024-03-02T08:53:31;8.27;;;4.60;;
31438;SDS011;18062;48.872;9.220;2024-03-02T08:55:57;7.30;;;4.97;;
31438;SDS011;18062;48.872;9.220;2024-03-02T08:58:23;7.83;;;5.23;;
31438;SDS011;18062;48.872;9.220;2024-03-02T09:00:49;8.03;;;5.27;;
31438;SDS011;18062;48.872;9.220;2024-03-02T09:03:15;7.03;;;4.80;;
31438;SDS011;18062;48.872;9.220;2024-03-02T09:05:41;6.70;;;4.70;;
31438;SDS011;18062;48.872;9.220;2024-03-02T09:08:08;7.63;;;4.60;;
31438;SDS011;18062;48.872;9.220;2024-03-02T09:10:34;6.37;;;4.83;;
31438;SDS011;18062;48.872;9.220;2024-03-02T09:13:00;6.17;;;4.63;;
31438;SDS011;18062;48.872;9.220;2024-03-02T09:15:26;6.67;;;5.10;;
31438;SDS011;18062;48.872;9.220;2024-03-02T09:17:52;6.13;;;4.53;;
31438;SDS011;18062;48.872;9.220;2024-03-02T09:20:18;7.87;;;4.40;;
31438;SDS011;18062;48.872;9.220;2024-03-02T09:22:44;4.80;;;3.80;;
31438;SDS011;18062;48.872;9.220;2024-03-02T09:25:12;4.57;;;4.07;;
31438;SDS011;18062;48.872;9.220;2024-03-02T09:27:41;4.30;;;3.57;;
31438;SDS011;18062;48.872;9.220;2024-03-02T09:30:08;3.83;;;3.40;;
31438;SDS011;18062;48.872;9.220;2024-03-02T09:32:35;3.70;;;3.07;;
31438;SDS011;18062;48.872;9.220;2024-03-02T09:35:01;11.67;;;9.40;;
31438;SDS011;18062;48.872;9.220;2024-03-02T09:37:27;4.97;;;3.97;;
31438;SDS011;18062;48.872;9.220;2024-03-02T09:39:53;3.70;;;2.97;;
31438;SDS011;18062;48.872;9.220;2024-03-02T09:42:20;3.07;;;2.77;;
31438;SDS011;18062;48.872;9.220;2024-03-02T09:44:46;3.10;;;2.80;;
31438;SDS011;18062;48.872;9.220;2024-03-02T09:47:12;3.27;;;2.97;;
31438;SDS011;18062;48.872;9.220;2024-03-02T09:49:39;3.57;;;2.70;;
31438;SDS011;18062;48.872;9.220;2024-03-02T09:52:05;3.17;;;2.87;;
31438;SDS011;18062;48.872;9.220;2024-03-02T09:54:32;2.80;;;2.28;;
31438;SDS011;18062;48.872;9.220;2024-03-02T09:56:58;5.78;;;2.88;;
31438;SDS011;18062;48.872;9.220;2024-03-02T09:59:26;3.60;;;2.67;;
31438;SDS011;18062;48.872;9.220;2024-03-02T10:01:57;3.60;;;2.72;;
31438;SDS011;18062;48.872;9.220;2024-03-02T10:04:26;3.15;;;2.78;;
31438;SDS011;18062;48.872;9.220;2024-03-02T10:09:37;2.30;;;2.08;;
31438;SDS011;18062;48.872;9.220;2024-03-02T10:12:04;3.17;;;2.83;;
31438;SDS011;18062;48.872;9.220;2024-03-02T10:14:30;3.08;;;2.60;;
31438;SDS011;18062;48.872;9.220;2024-03-02T10:17:01;2.95;;;2.55;;
31438;SDS011;18062;48.872;9.220;2024-03-02T10:19:27;3.20;;;2.60;;
31438;SDS011;18062;48.872;9.220;2024-03-02T10:21:58;2.08;;;1.88;;
31438;SDS011;18062;48.872;9.220;2024-03-02T10:24:24;3.17;;;2.88;;
31438;SDS011;18062;48.872;9.220;2024-03-02T10:26:51;2.72;;;2.47;;
31438;SDS011;18062;48.872;9.220;2024-03-02T10:29:17;2.17;;;1.98;;
31438;SDS011;18062;48.872;9.220;2024-03-02T10:31:44;3.22;;;2.15;;
31438;SDS011;18062;48.872;9.220;2024-03-02T10:34:11;2.05;;;1.90;;
31438;SDS011;18062;48.872;9.220;2024-03-02T10:36:37;1.60;;;1.50;;
31438;SDS011;18062;48.872;9.220;2024-03-02T10:39:06;2.60;;;2.38;;
31438;SDS011;18062;48.872;9.220;2024-03-02T10:41:36;1.75;;;1.65;;
31438;SDS011;18062;48.872;9.220;2024-03-02T10:44:03;1.90;;;1.70;;
31438;SDS011;18062;48.872;9.220;2024-03-02T10:46:30;1.80;;;1.70;;
31438;SDS011;18062;48.872;9.220;2024-03-02T10:48:57;2.00;;;1.77;;
31438;SDS011;18062;48.872;9.220;2024-03-02T10:51:26;2.13;;;1.85;;
31438;SDS011;18062;48.872;9.220;2024-03-02T10:53:54;3.50;;;2.30;;
31438;SDS011;18062;48.872;9.220;2024-03-02T10:56:28;2.67;;;2.47;;
31438;SDS011;18062;48.872;9.220;2024-03-02T10:59:36;2.40;;;2.10;;
31438;SDS011;18062;48.872;9.220;2024-03-02T11:01:43;1.85;;;1.75;;
31438;SDS011;18062;48.872;9.220;2024-03-02T11:04:12;2.47;;;2.28;;
31438;SDS011;18062;48.872;9.220;2024-03-02T11:06:38;2.60;;;1.80;;
31438;SDS011;18062;48.872;9.220;2024-03-02T11:09:07;2.60;;;2.20;;
31438;SDS011;18062;48.872;9.220;2024-03-02T11:11:40;2.13;;;1.92;;
31438;SDS011;18062;48.872;9.220;2024-03-02T11:14:07;2.95;;;2.10;;
31438;SDS011;18062;48.872;9.220;2024-03-02T11:16:36;2.13;;;1.90;;
31438;SDS011;18062;48.872;9.220;2024-03-02T11:19:06;2.03;;;1.67;;
31438;SDS011;18062;48.872;9.220;2024-03-02T11:21:34;2.05;;;1.88;;
31438;SDS011;18062;48.872;9.220;2024-03-02T11:24:00;1.50;;;1.40;;
31438;SDS011;18062;48.872;9.220;2024-03-02T11:26:27;1.77;;;1.67;;
31438;SDS011;18062;48.872;9.220;2024-03-02T11:28:53;1.63;;;1.52;;
31438;SDS011;18062;48.872;9.220;2024-03-02T11:31:21;1.95;;;1.50;;
31438;SDS011;18062;48.872;9.220;2024-03-02T11:33:47;2.25;;;1.88;;
31438;SDS011;18062;48.872;9.220;2024-03-02T11:36:13;1.55;;;1.45;;
31438;SDS011;18062;48.872;9.220;2024-03-02T11:38:39;1.35;;;1.25;;
31438;SDS011;18062;48.872;9.220;2024-03-02T11:41:10;1.38;;;1.27;;
31438;SDS011;18062;48.872;9.220;2024-03-02T11:43:37;1.55;;;1.45;;
31438;SDS011;18062;48.872;9.220;2024-03-02T11:46:04;2.10;;;1.52;;
31438;SDS011;18062;48.872;9.220;2024-03-02T11:48:39;1.10;;;1.10;;
31438;SDS011;18062;48.872;9.220;2024-03-02T11:51:06;1.40;;;1.30;;
31438;SDS011;18062;48.872;9.220;2024-03-02T11:53:32;1.38;;;1.30;;
31438;SDS011;18062;48.872;9.220;2024-03-02T11:55:59;5.63;;;5.13;;
31438;SDS011;18062;48.872;9.220;2024-03-02T11:58:27;1.80;;;1.42;;
31438;SDS011;18062;48.872;9.220;2024-03-02T12:00:53;1.60;;;1.30;;
31438;SDS011;18062;48.872;9.220;2024-03-02T12:03:21;1.58;;;1.30;;
31438;SDS011;18062;48.872;9.220;2024-03-02T12:05:52;1.50;;;1.40;;
31438;SDS011;18062;48.872;9.220;2024-03-02T12:08:18;1.27;;;1.13;;
31438;SDS011;18062;48.872;9.220;2024-03-02T12:10:55;1.60;;;1.50;;
31438;SDS011;18062;48.872;9.220;2024-03-02T12:13:21;1.70;;;1.30;;
31438;SDS011;18062;48.872;9.220;2024-03-02T12:15:48;1.30;;;1.20;;
31438;SDS011;18062;48.872;9.220;2024-03-02T12:18:19;1.20;;;1.10;;
31438;SDS011;18062;48.872;9.220;2024-03-02T12:20:45;1.35;;;1.27;;
31438;SDS011;18062;48.872;9.220;2024-03-02T12:23:14;1.00;;;1.00;;
31438;SDS011;18062;48.872;9.220;2024-03-02T12:25:40;1.08;;;0.90;;
31438;SDS011;18062;48.872;9.220;2024-03-02T12:28:07;1.08;;;0.98;;
31438;SDS011;18062;48.872;9.220;2024-03-02T12:30:35;1.30;;;1.20;;
31438;SDS011;18062;48.872;9.220;2024-03-02T12:33:01;1.00;;;1.00;;
31438;SDS011;18062;48.872;9.220;2024-03-02T12:35:27;1.33;;;0.98;;
31438;SDS011;18062;48.872;9.220;2024-03-02T12:37:53;1.10;;;1.00;;
31438;SDS011;18062;48.872;9.220;2024-03-02T12:40:20;0.95;;;0.93;;
31438;SDS011;18062;48.872;9.220;2024-03-02T12:42:47;1.02;;;1.00;;
31438;SDS011;18062;48.872;9.220;2024-03-02T12:45:14;1.10;;;1.00;;
31438;SDS011;18062;48.872;9.220;2024-03-02T12:47:41;0.95;;;0.88;;
31438;SDS011;18062;48.872;9.220;2024-03-02T12:50:07;1.15;;;1.10;;
31438;SDS011;18062;48.872;9.220;2024-03-02T12:52:33;1.20;;;1.10;;
31438;SDS011;18062;48.872;9.220;2024-03-02T12:55:00;1.30;;;1.20;;
31438;SDS011;18062;48.872;9.220;2024-03-02T12:57:28;1.20;;;1.05;;
31438;SDS011;18062;48.872;9.220;2024-03-02T13:00:04;0.90;;;0.90;;
31438;SDS011;18062;48.872;9.220;2024-03-02T13:02:39;0.85;;;0.85;;
31438;SDS011;18062;48.872;9.220;2024-03-02T13:05:06;1.88;;;1.67;;
31438;SDS011;18062;48.872;9.220;2024-03-02T13:07:36;1.17;;;1.10;;
31438;SDS011;18062;48.872;9.220;2024-03-02T13:10:02;1.55;;;0.90;;
31438;SDS011;18062;48.872;9.220;2024-03-02T13:12:29;1.08;;;1.08;;
31438;SDS011;18062;48.872;9.220;2024-03-02T13:14:57;1.20;;;1.10;;
31438;SDS011;18062;48.872;9.220;2024-03-02T13:17:23;0.90;;;0.90;;
31438;SDS011;18062;48.872;9.220;2024-03-02T13:19:55;1.05;;;0.90;;
31438;SDS011;18062;48.872;9.220;2024-03-02T13:22:21;1.23;;;0.90;;
31438;SDS011;18062;48.872;9.220;2024-03-02T13:24:48;0.70;;;0.70;;
31438;SDS011;18062;48.872;9.220;2024-03-02T13:27:14;0.70;;;0.70;;
31438;SDS011;18062;48.872;9.220;2024-03-02T13:29:41;0.70;;;0.70;;
31438;SDS011;18062;48.872;9.220;2024-03-02T13:32:07;0.70;;;0.70;;
31438;SDS011;18062;48.872;9.220;2024-03-02T13:34:35;0.60;;;0.60;;
31438;SDS011;18062;48.872;9.220;2024-03-02T13:37:02;0.80;;;0.80;;
31438;SDS011;18062;48.872;9.220;2024-03-02T13:39:29;0.70;;;0.70;;
31438;SDS011;18062;48.872;9.220;2024-03-02T13:41:57;1.00;;;0.90;;
31438;SDS011;18062;48.872;9.220;2024-03-02T13:44:29;0.95;;;0.88;;
31438;SDS011;18062;48.872;9.220;2024-03-02T13:46:55;0.90;;;0.90;;
31438;SDS011;18062;48.872;9.220;2024-03-02T13:49:21;1.02;;;0.95;;
31438;SDS011;18062;48.872;9.220;2024-03-02T13:51:48;1.23;;;0.80;;
31438;SDS011;18062;48.872;9.220;2024-03-02T13:54:15;1.83;;;0.80;;
31438;SDS011;18062;48.872;9.220;2024-03-02T13:56:41;1.13;;;1.02;;
31438;SDS011;18062;48.872;9.220;2024-03-02T13:59:07;0.80;;;0.80;;
31438;SDS011;18062;48.872;9.220;2024-03-02T14:01:33;1.08;;;0.90;;
31438;SDS011;18062;48.872;9.220;2024-03-02T14:03:59;1.10;;;0.85;;
31438;SDS011;18062;48.872;9.220;2024-03-02T14:06:26;1.05;;;1.00;;
31438;SDS011;18062;48.872;9.220;2024-03-02T14:08:52;0.80;;;0.80;;
31438;SDS011;18062;48.872;9.220;2024-03-02T14:11:18;0.90;;;0.90;;
31438;SDS011;18062;48.872;9.220;2024-03-02T14:13:44;0.93;;;0.93;;
31438;SDS011;18062;48.872;9.220;2024-03-02T14:16:14;0.98;;;0.90;;
31438;SDS011;18062;48.872;9.220;2024-03-02T14:18:41;0.90;;;0.90;;
31438;SDS011;18062;48.872;9.220;2024-03-02T14:21:07;0.80;;;0.80;;
31438;SDS011;18062;48.872;9.220;2024-03-02T14:23:33;1.00;;;1.00;;
31438;SDS011;18062;48.872;9.220;2024-03-02T14:25:59;0.90;;;0.90;;
31438;SDS011;18062;48.872;9.220;2024-03-02T14:28:25;0.90;;;0.90;;
31438;SDS011;18062;48.872;9.220;2024-03-02T14:30:51;1.00;;;1.00;;
31438;SDS011;18062;48.872;9.220;2024-03-02T14:33:18;1.00;;;0.95;;
31438;SDS011;18062;48.872;9.220;2024-03-02T14:35:44;1.48;;;1.08;;
31438;SDS011;18062;48.872;9.220;2024-03-02T14:38:11;0.90;;;0.90;;
31438;SDS011;18062;48.872;9.220;2024-03-02T14:40:37;1.15;;;1.10;;